sensor_id;sensor_type;location;lat;lon;timestamp;P1;durP1;ratioP1;P2;durP2;ratioP2
53285;SDS011;39171;45.550;12.074;2023-12-04T00:10:45;15.43;;;13.57;;
53285;SDS011;39171;45.550;12.074;2023-12-04T00:16:47;14.02;;;12.52;;
53285;SDS011;39171;45.550;12.074;2023-12-04T00:22:51;13.70;;;11.98;;
53285;SDS011;39171;45.550;12.074;2023-12-04T00:28:54;12.60;;;11.30;;
53285;SDS011;39171;45.550;12.074;2023-12-04T00:34:59;13.32;;;11.25;;
53285;SDS011;39171;45.550;12.074;2023-12-04T00:41:05;12.65;;;10.40;;
53285;SDS011;39171;45.550;12.074;2023-12-04T00:47:07;11.27;;;10.18;;
53285;SDS011;39171;45.550;12.074;2023-12-04T00:53:12;12.18;;;10.63;;
53285;SDS011;39171;45.550;12.074;2023-12-04T00:59:14;11.10;;;9.98;;
53285;SDS011;39171;45.550;12.074;2023-12-04T01:05:17;10.95;;;9.73;;
53285;SDS011;39171;45.550;12.074;2023-12-04T01:11:30;11.77;;;10.57;;
53285;SDS011;39171;45.550;12.074;2023-12-04T01:17:55;11.00;;;9.90;;
53285;SDS011;39171;45.550;12.074;2023-12-04T01:24:23;11.93;;;9.93;;
53285;SDS011;39171;45.550;12.074;2023-12-04T01:31:00;11.63;;;10.40;;
53285;SDS011;39171;45.550;12.074;2023-12-04T01:37:23;11.60;;;10.35;;
53285;SDS011;39171;45.550;12.074;2023-12-04T01:49:36;11.40;;;10.20;;
53285;SDS011;39171;45.550;12.074;2023-12-04T01:55:48;10.50;;;9.40;;
53285;SDS011;39171;45.550;12.074;2023-12-04T02:01:51;10.57;;;9.48;;
53285;SDS011;39171;45.550;12.074;2023-12-04T02:07:55;11.95;;;10.27;;
53285;SDS011;39171;45.550;12.074;2023-12-04T02:13:57;11.02;;;9.93;;
53285;SDS011;39171;45.550;12.074;2023-12-04T02:20:18;11.90;;;10.20;;
53285;SDS011;39171;45.550;12.074;2023-12-04T02:26:28;11.90;;;10.68;;
53285;SDS011;39171;45.550;12.074;2023-12-04T02:32:42;12.10;;;10.90;;
53285;SDS011;39171;45.550;12.074;2023-12-04T02:38:50;11.65;;;8.15;;
53285;SDS011;39171;45.550;12.074;2023-12-04T02:45:11;12.80;;;10.93;;
53285;SDS011;39171;45.550;12.074;2023-12-04T02:51:29;11.48;;;10.18;;
53285;SDS011;39171;45.550;12.074;2023-12-04T02:57:34;11.35;;;9.75;;
53285;SDS011;39171;45.550;12.074;2023-12-04T03:03:45;11.50;;;10.30;;
53285;SDS011;39171;45.550;12.074;2023-12-04T03:10:22;12.18;;;10.50;;
53285;SDS011;39171;45.550;12.074;2023-12-04T03:16:32;11.05;;;7.55;;
53285;SDS011;39171;45.550;12.074;2023-12-04T03:22:35;11.00;;;9.90;;
53285;SDS011;39171;45.550;12.074;2023-12-04T03:28:40;11.23;;;10.02;;
53285;SDS011;39171;45.550;12.074;2023-12-04T03:34:45;10.80;;;9.63;;
53285;SDS011;39171;45.550;12.074;2023-12-04T03:40:49;11.45;;;10.25;;
53285;SDS011;39171;45.550;12.074;2023-12-04T03:46:51;11.70;;;10.52;;
53285;SDS011;39171;45.550;12.074;2023-12-04T03:53:00;12.60;;;11.30;;
53285;SDS011;39171;45.550;12.074;2023-12-04T03:59:03;11.65;;;10.45;;
53285;SDS011;39171;45.550;12.074;2023-12-04T04:05:11;12.13;;;10.82;;
53285;SDS011;39171;45.550;12.074;2023-12-04T04:11:13;11.43;;;10.23;;
53285;SDS011;39171;45.550;12.074;2023-12-04T04:17:15;11.95;;;10.48;;
53285;SDS011;39171;45.550;12.074;2023-12-04T04:23:24;11.50;;;10.38;;
53285;SDS011;39171;45.550;12.074;2023-12-04T04:29:31;11.52;;;10.32;;
53285;SDS011;39171;45.550;12.074;2023-12-04T04:35:36;11.23;;;10.13;;
53285;SDS011;39171;45.550;12.074;2023-12-04T04:41:40;12.30;;;11.02;;
53285;SDS011;39171;45.550;12.074;2023-12-04T04:47:45;11.45;;;10.25;;
53285;SDS011;39171;45.550;12.074;2023-12-04T04:53:47;11.07;;;9.98;;
53285;SDS011;39171;45.550;12.074;2023-12-04T05:00:00;11.70;;;10.45;;
53285;SDS011;39171;45.550;12.074;2023-12-04T05:06:26;10.98;;;9.88;;
53285;SDS011;39171;45.550;12.074;2023-12-04T05:12:34;11.43;;;10.20;;
53285;SDS011;39171;45.550;12.074;2023-12-04T05:18:39;10.43;;;9.43;;
53285;SDS011;39171;45.550;12.074;2023-12-04T05:24:45;10.45;;;9.45;;
53285;SDS011;39171;45.550;12.074;2023-12-04T05:30:51;11.80;;;10.60;;
53285;SDS011;39171;45.550;12.074;2023-12-04T05:37:08;10.48;;;9.38;;
53285;SDS011;39171;45.550;12.074;2023-12-04T05:43:18;12.10;;;10.77;;
53285;SDS011;39171;45.550;12.074;2023-12-04T05:49:47;11.90;;;10.50;;
53285;SDS011;39171;45.550;12.074;2023-12-04T05:55:52;10.52;;;9.45;;
53285;SDS011;39171;45.550;12.074;2023-12-04T06:02:02;8.52;;;5.93;;
53285;SDS011;39171;45.550;12.074;2023-12-04T06:08:27;9.40;;;6.80;;
53285;SDS011;39171;45.550;12.074;2023-12-04T11:08:01;15.25;;;11.68;;
53285;SDS011;39171;45.550;12.074;2023-12-04T11:21:31;11.35;;;7.78;;
53285;SDS011;39171;45.550;12.074;2023-12-04T11:43:38;10.77;;;7.18;;
53285;SDS011;39171;45.550;12.074;2023-12-04T11:49:52;10.35;;;8.98;;
53285;SDS011;39171;45.550;12.074;2023-12-04T12:44:49;11.75;;;10.07;;
53285;SDS011;39171;45.550;12.074;2023-12-04T12:51:06;16.52;;;11.23;;
53285;SDS011;39171;45.550;12.074;2023-12-04T12:57:13;16.40;;;12.30;;
53285;SDS011;39171;45.550;12.074;2023-12-04T13:03:18;16.77;;;11.68;;
53285;SDS011;39171;45.550;12.074;2023-12-04T13:09:23;12.25;;;7.40;;
53285;SDS011;39171;45.550;12.074;2023-12-04T13:15:28;11.63;;;10.15;;
53285;SDS011;39171;45.550;12.074;2023-12-04T13:21:30;10.85;;;8.68;;
53285;SDS011;39171;45.550;12.074;2023-12-04T13:27:33;10.90;;;9.45;;
53285;SDS011;39171;45.550;12.074;2023-12-04T13:33:34;11.52;;;9.27;;
53285;SDS011;39171;45.550;12.074;2023-12-04T13:39:42;11.57;;;9.32;;
53285;SDS011;39171;45.550;12.074;2023-12-04T13:45:51;10.63;;;9.05;;
53285;SDS011;39171;45.550;12.074;2023-12-04T13:51:54;10.32;;;9.30;;
53285;SDS011;39171;45.550;12.074;2023-12-04T13:57:56;8.90;;;8.00;;
53285;SDS011;39171;45.550;12.074;2023-12-04T14:04:00;9.73;;;6.70;;
53285;SDS011;39171;45.550;12.074;2023-12-04T14:10:11;8.93;;;6.07;;
53285;SDS011;39171;45.550;12.074;2023-12-04T14:16:16;9.10;;;8.20;;
53285;SDS011;39171;45.550;12.074;2023-12-04T14:22:20;9.77;;;8.35;;
53285;SDS011;39171;45.550;12.074;2023-12-04T14:28:21;10.55;;;8.65;;
53285;SDS011;39171;45.550;12.074;2023-12-04T14:34:25;10.90;;;9.80;;
53285;SDS011;39171;45.550;12.074;2023-12-04T14:40:27;11.85;;;10.55;;
53285;SDS011;39171;45.550;12.074;2023-12-04T14:46:29;11.93;;;8.57;;
53285;SDS011;39171;45.550;12.074;2023-12-04T14:52:31;11.23;;;10.02;;
53285;SDS011;39171;45.550;12.074;2023-12-04T14:58:37;11.48;;;10.27;;
53285;SDS011;39171;45.550;12.074;2023-12-04T15:05:04;11.07;;;9.60;;
53285;SDS011;39171;45.550;12.074;2023-12-04T15:11:07;11.93;;;10.07;;
53285;SDS011;39171;45.550;12.074;2023-12-04T15:17:26;11.68;;;7.75;;
53285;SDS011;39171;45.550;12.074;2023-12-04T15:23:37;11.32;;;10.00;;
53285;SDS011;39171;45.550;12.074;2023-12-04T15:29:38;12.32;;;10.90;;
53285;SDS011;39171;45.550;12.074;2023-12-04T15:35:42;12.68;;;11.20;;
53285;SDS011;39171;45.550;12.074;2023-12-04T15:41:46;12.75;;;11.45;;
53285;SDS011;39171;45.550;12.074;2023-12-04T15:47:47;11.88;;;10.52;;
53285;SDS011;39171;45.550;12.074;2023-12-04T15:53:55;14.63;;;8.70;;
53285;SDS011;39171;45.550;12.074;2023-12-04T16:00:00;12.32;;;10.85;;
53285;SDS011;39171;45.550;12.074;2023-12-04T16:06:40;13.10;;;11.65;;
53285;SDS011;39171;45.550;12.074;2023-12-04T16:13:17;12.98;;;10.93;;
53285;SDS011;39171;45.550;12.074;2023-12-04T16:19:19;14.48;;;12.65;;
53285;SDS011;39171;45.550;12.074;2023-12-04T16:25:21;13.02;;;11.68;;
53285;SDS011;39171;45.550;12.074;2023-12-04T16:31:28;12.35;;;11.05;;
53285;SDS011;39171;45.550;12.074;2023-12-04T16:37:56;11.77;;;10.57;;
53285;SDS011;39171;45.550;12.074;2023-12-04T16:44:11;11.45;;;10.25;;
53285;SDS011;39171;45.550;12.074;2023-12-04T16:50:32;10.82;;;9.30;;
53285;SDS011;39171;45.550;12.074;2023-12-04T16:56:34;10.85;;;9.70;;
53285;SDS011;39171;45.550;12.074;2023-12-04T17:02:38;11.05;;;9.88;;
53285;SDS011;39171;45.550;12.074;2023-12-04T17:09:00;12.15;;;10.18;;
53285;SDS011;39171;45.550;12.074;2023-12-04T17:15:33;13.13;;;7.82;;
53285;SDS011;39171;45.550;12.074;2023-12-04T17:21:39;12.57;;;11.27;;
53285;SDS011;39171;45.550;12.074;2023-12-04T17:27:43;12.90;;;11.50;;
53285;SDS011;39171;45.550;12.074;2023-12-04T17:33:45;16.42;;;13.73;;
53285;SDS011;39171;45.550;12.074;2023-12-04T17:39:50;17.17;;;14.63;;
53285;SDS011;39171;45.550;12.074;2023-12-04T17:46:32;19.27;;;15.88;;
53285;SDS011;39171;45.550;12.074;2023-12-04T17:52:37;19.90;;;11.45;;
53285;SDS011;39171;45.550;12.074;2023-12-04T17:58:51;16.00;;;13.88;;
53285;SDS011;39171;45.550;12.074;2023-12-04T18:05:07;14.85;;;13.07;;
53285;SDS011;39171;45.550;12.074;2023-12-04T18:11:14;14.23;;;12.73;;
53285;SDS011;39171;45.550;12.074;2023-12-04T18:17:23;13.02;;;11.73;;
53285;SDS011;39171;45.550;12.074;2023-12-04T18:23:37;13.40;;;12.02;;
53285;SDS011;39171;45.550;12.074;2023-12-04T18:30:12;13.43;;;12.02;;
53285;SDS011;39171;45.550;12.074;2023-12-04T18:36:20;12.50;;;8.90;;
53285;SDS011;39171;45.550;12.074;2023-12-04T18:42:27;13.20;;;8.55;;
53285;SDS011;39171;45.550;12.074;2023-12-04T18:48:36;14.73;;;12.90;;
53285;SDS011;39171;45.550;12.074;2023-12-04T18:54:45;17.73;;;11.02;;
53285;SDS011;39171;45.550;12.074;2023-12-04T19:00:47;16.02;;;14.32;;
53285;SDS011;39171;45.550;12.074;2023-12-04T19:06:49;15.50;;;9.52;;
53285;SDS011;39171;45.550;12.074;2023-12-04T19:12:50;18.13;;;14.88;;
53285;SDS011;39171;45.550;12.074;2023-12-04T19:19:26;15.63;;;11.63;;
53285;SDS011;39171;45.550;12.074;2023-12-04T19:25:28;17.80;;;14.30;;
53285;SDS011;39171;45.550;12.074;2023-12-04T19:31:33;19.42;;;16.05;;
53285;SDS011;39171;45.550;12.074;2023-12-04T19:37:43;17.27;;;14.80;;
53285;SDS011;39171;45.550;12.074;2023-12-04T19:43:52;17.10;;;15.07;;
53285;SDS011;39171;45.550;12.074;2023-12-04T19:49:54;16.05;;;13.90;;
53285;SDS011;39171;45.550;12.074;2023-12-04T19:55:56;14.25;;;12.75;;
53285;SDS011;39171;45.550;12.074;2023-12-04T20:02:10;16.20;;;14.15;;
53285;SDS011;39171;45.550;12.074;2023-12-04T20:08:16;15.38;;;13.88;;
53285;SDS011;39171;45.550;12.074;2023-12-04T20:14:18;15.27;;;13.68;;
53285;SDS011;39171;45.550;12.074;2023-12-04T20:20:25;18.90;;;15.57;;
53285;SDS011;39171;45.550;12.074;2023-12-04T20:26:29;16.73;;;15.00;;
53285;SDS011;39171;45.550;12.074;2023-12-04T20:32:48;17.25;;;15.52;;
53285;SDS011;39171;45.550;12.074;2023-12-04T20:38:58;17.73;;;11.43;;
53285;SDS011;39171;45.550;12.074;2023-12-04T20:45:03;16.23;;;14.52;;
53285;SDS011;39171;45.550;12.074;2023-12-04T20:51:05;17.73;;;15.82;;
53285;SDS011;39171;45.550;12.074;2023-12-04T20:57:22;17.73;;;15.93;;
53285;SDS011;39171;45.550;12.074;2023-12-04T21:03:23;17.33;;;11.32;;
53285;SDS011;39171;45.550;12.074;2023-12-04T21:09:28;17.80;;;15.82;;
53285;SDS011;39171;45.550;12.074;2023-12-04T21:15:33;16.77;;;14.88;;
53285;SDS011;39171;45.550;12.074;2023-12-04T21:21:58;16.60;;;14.80;;
53285;SDS011;39171;45.550;12.074;2023-12-04T21:28:17;15.68;;;13.93;;
53285;SDS011;39171;45.550;12.074;2023-12-04T21:34:24;15.63;;;13.30;;
53285;SDS011;39171;45.550;12.074;2023-12-04T21:40:26;15.93;;;14.07;;
53285;SDS011;39171;45.550;12.074;2023-12-04T21:46:41;15.98;;;14.38;;
53285;SDS011;39171;45.550;12.074;2023-12-04T21:52:48;16.70;;;15.00;;
53285;SDS011;39171;45.550;12.074;2023-12-04T21:59:00;17.58;;;15.77;;
53285;SDS011;39171;45.550;12.074;2023-12-04T22:05:26;18.38;;;16.48;;
53285;SDS011;39171;45.550;12.074;2023-12-04T22:11:49;19.10;;;17.25;;
53285;SDS011;39171;45.550;12.074;2023-12-04T22:17:59;15.87;;;10.53;;
53285;SDS011;39171;45.550;12.074;2023-12-04T22:24:16;18.52;;;16.02;;
53285;SDS011;39171;45.550;12.074;2023-12-04T22:30:23;19.45;;;17.35;;
53285;SDS011;39171;45.550;12.074;2023-12-04T22:36:27;24.00;;;20.40;;
53285;SDS011;39171;45.550;12.074;2023-12-04T22:42:29;24.80;;;15.88;;
53285;SDS011;39171;45.550;12.074;2023-12-04T22:48:33;20.08;;;17.85;;
53285;SDS011;39171;45.550;12.074;2023-12-04T22:54:46;18.10;;;12.32;;
53285;SDS011;39171;45.550;12.074;2023-12-04T23:00:48;14.75;;;10.80;;
53285;SDS011;39171;45.550;12.074;2023-12-04T23:06:52;17.73;;;10.90;;
53285;SDS011;39171;45.550;12.074;2023-12-04T23:12:54;19.02;;;11.57;;
53285;SDS011;39171;45.550;12.074;2023-12-04T23:18:59;18.48;;;16.60;;
53285;SDS011;39171;45.550;12.074;2023-12-04T23:25:07;14.55;;;9.98;;
53285;SDS011;39171;45.550;12.074;2023-12-04T23:31:09;17.08;;;15.13;;
53285;SDS011;39171;45.550;12.074;2023-12-04T23:37:18;16.40;;;14.57;;
53285;SDS011;39171;45.550;12.074;2023-12-04T23:43:20;17.02;;;15.32;;
53285;SDS011;39171;45.550;12.074;2023-12-04T23:49:24;17.15;;;15.35;;
53285;SDS011;39171;45.550;12.074;2023-12-04T23:55:31;16.58;;;14.77;;
